createdAt,value
2018-03-23T00:01:27.607Z,98.46
2018-03-23T00:03:53.628Z,98.42
2018-03-23T00:06:19.625Z,98.10
2018-03-23T00:08:45.628Z,98.16
2018-03-23T00:11:11.650Z,98.38
2018-03-23T00:13:37.652Z,98.18
2018-03-23T00:16:03.713Z,98.20
2018-03-23T00:18:29.727Z,98.47
2018-03-23T00:20:55.722Z,98.17
2018-03-23T00:23:21.748Z,98.21
2018-03-23T00:25:47.823Z,98.03
2018-03-23T00:28:13.846Z,98.01
2018-03-23T00:30:39.870Z,98.01
2018-03-23T00:33:05.881Z,97.81
2018-03-23T00:35:32.002Z,97.73
2018-03-23T00:37:58.004Z,97.76
2018-03-23T00:40:24.038Z,97.86
2018-03-23T00:42:50.073Z,97.37
2018-03-23T00:45:16.196Z,97.08
2018-03-23T00:47:42.203Z,97.42
2018-03-23T00:50:08.265Z,97.27
2018-03-23T00:52:34.327Z,97.12
2018-03-23T00:55:00.434Z,96.95
2018-03-23T00:57:26.463Z,97.06
2018-03-23T00:59:52.460Z,97.29
2018-03-23T01:02:18.555Z,97.15
2018-03-23T01:04:44.627Z,97.21
2018-03-23T01:07:10.623Z,97.25
2018-03-23T01:09:36.653Z,96.72
2018-03-23T01:12:02.766Z,97.04
2018-03-23T01:14:28.929Z,97.34
2018-03-23T01:16:54.942Z,96.64
2018-03-23T01:19:20.958Z,96.44
2018-03-23T01:21:47.067Z,96.33
2018-03-23T01:24:13.150Z,96.30
2018-03-23T01:26:39.125Z,95.92
2018-03-23T01:29:05.114Z,96.20
2018-03-23T01:31:31.224Z,95.85
2018-03-23T01:33:57.207Z,95.84
2018-03-23T01:36:23.227Z,95.43
2018-03-23T01:38:49.319Z,95.63
2018-03-23T01:41:15.313Z,95.47
2018-03-23T01:43:41.345Z,95.67
2018-03-23T01:46:07.433Z,95.67
2018-03-23T01:48:33.464Z,95.43
2018-03-23T01:50:59.489Z,94.96
2018-03-23T01:53:37.697Z,95.01
2018-03-23T01:56:03.747Z,95.31
2018-03-23T01:58:29.756Z,95.39
2018-03-23T02:00:56.413Z,95.61
2018-03-23T02:03:22.550Z,95.60
2018-03-23T02:05:48.570Z,95.44
2018-03-23T02:08:14.601Z,95.30
2018-03-23T02:10:40.771Z,95.31
2018-03-23T02:13:06.928Z,95.42
2018-03-23T02:15:32.922Z,95.48
2018-03-23T02:17:58.926Z,95.73
2018-03-23T02:20:24.976Z,95.86
2018-03-23T02:22:51.019Z,95.74
2018-03-23T02:25:17.004Z,95.35
2018-03-23T02:27:43.030Z,95.60
2018-03-23T02:30:09.241Z,95.66
2018-03-23T02:32:35.235Z,95.85
2018-03-23T02:35:01.251Z,95.96
2018-03-23T02:37:27.303Z,95.97
2018-03-23T02:39:55.410Z,96.04
2018-03-23T02:42:21.410Z,95.44
2018-03-23T02:44:47.436Z,95.40
2018-03-23T02:47:13.460Z,95.41
2018-03-23T02:49:39.537Z,95.52
2018-03-23T02:52:06.073Z,95.59
2018-03-23T02:54:32.081Z,95.38
2018-03-23T02:56:58.108Z,95.17
2018-03-23T02:59:24.150Z,95.45
2018-03-23T03:01:50.183Z,95.28
2018-03-23T03:04:16.296Z,95.32
2018-03-23T03:06:42.505Z,94.97
2018-03-23T03:09:08.577Z,95.17
2018-03-23T03:11:34.621Z,95.03
2018-03-23T03:14:00.716Z,95.27
2018-03-23T03:16:26.738Z,95.20
2018-03-23T03:18:52.979Z,95.65
2018-03-23T03:21:19.001Z,95.05
2018-03-23T03:23:45.004Z,95.10
2018-03-23T03:26:11.042Z,94.64
2018-03-23T03:28:37.065Z,95.19
2018-03-23T03:31:03.070Z,94.67
2018-03-23T03:33:29.083Z,95.01
2018-03-23T03:35:55.257Z,95.20
2018-03-23T03:38:21.249Z,94.82
2018-03-23T03:40:47.241Z,94.76
2018-03-23T03:43:13.299Z,94.83
2018-03-23T03:45:40.286Z,93.84
2018-03-23T03:48:06.415Z,93.76
2018-03-23T03:50:32.438Z,93.75
2018-03-23T03:52:58.611Z,93.47
2018-03-23T03:55:24.649Z,93.68
2018-03-23T03:57:50.755Z,93.47
2018-03-23T04:00:16.988Z,94.05
2018-03-23T04:02:42.969Z,94.19
2018-03-23T04:05:09.031Z,94.21
2018-03-23T04:07:35.097Z,94.15
2018-03-23T04:10:01.098Z,94.42
2018-03-23T04:12:27.122Z,94.17
2018-03-23T04:14:53.118Z,94.44
2018-03-23T04:17:19.125Z,94.15
2018-03-23T04:19:45.121Z,94.08
2018-03-23T04:22:11.128Z,93.74
2018-03-23T04:24:37.311Z,93.99
2018-03-23T04:27:03.309Z,94.21
2018-03-23T04:29:29.306Z,94.13
2018-03-23T04:31:55.299Z,94.30
2018-03-23T04:34:21.347Z,94.40
2018-03-23T04:36:47.349Z,94.08
2018-03-23T04:39:13.334Z,94.09
2018-03-23T04:41:39.410Z,93.58
2018-03-23T04:44:05.421Z,93.32
2018-03-23T04:46:31.501Z,93.45
2018-03-23T04:48:57.514Z,93.31
2018-03-23T04:51:23.565Z,93.67
2018-03-23T04:53:49.551Z,93.42
2018-03-23T04:56:15.562Z,92.87
2018-03-23T04:58:41.553Z,93.16
2018-03-23T05:01:07.719Z,93.16
2018-03-23T05:03:33.739Z,93.25
2018-03-23T05:05:59.741Z,92.83
2018-03-23T05:08:25.741Z,93.08
2018-03-23T05:10:51.770Z,92.96
2018-03-23T05:13:17.797Z,93.25
2018-03-23T05:15:44.485Z,92.71
2018-03-23T05:18:10.536Z,92.37
2018-03-23T05:20:36.532Z,91.94
2018-03-23T05:23:02.526Z,91.69
2018-03-23T05:25:28.720Z,92.42
2018-03-23T05:27:54.798Z,92.00
2018-03-23T05:30:20.898Z,91.90
2018-03-23T05:32:46.917Z,92.23
2018-03-23T05:35:13.086Z,91.56
2018-03-23T05:37:39.224Z,91.33
2018-03-23T05:40:05.235Z,91.25
2018-03-23T05:42:31.297Z,91.04
2018-03-23T05:44:57.295Z,92.18
2018-03-23T05:47:23.313Z,91.99
2018-03-23T05:49:49.321Z,92.04
2018-03-23T05:52:15.322Z,91.91
2018-03-23T05:54:41.374Z,92.12
2018-03-23T05:57:07.395Z,91.42
2018-03-23T05:59:33.417Z,91.71
2018-03-23T06:01:59.477Z,91.13
2018-03-23T06:04:25.573Z,90.97
2018-03-23T06:06:51.650Z,90.83
2018-03-23T06:09:17.651Z,91.04
2018-03-23T06:11:43.721Z,90.75
2018-03-23T06:14:09.713Z,90.58
2018-03-23T06:16:35.737Z,90.04
2018-03-23T06:19:01.771Z,89.87
2018-03-23T06:21:27.759Z,90.42
2018-03-23T06:23:53.773Z,89.90
2018-03-23T06:26:19.829Z,89.76
2018-03-23T06:28:46.401Z,90.08
2018-03-23T06:31:12.615Z,89.93
2018-03-23T06:33:38.601Z,89.99
2018-03-23T06:36:04.616Z,89.79
2018-03-23T06:38:30.689Z,88.97
2018-03-23T06:40:56.882Z,89.10
2018-03-23T06:43:22.909Z,89.16
2018-03-23T06:45:48.954Z,89.25
2018-03-23T06:48:15.119Z,88.60
2018-03-23T06:50:41.242Z,88.06
2018-03-23T06:53:07.296Z,87.67
2018-03-23T06:55:33.287Z,87.65
2018-03-23T06:57:59.309Z,87.49
2018-03-23T07:00:25.366Z,86.63
2018-03-23T07:02:51.400Z,87.18
2018-03-23T07:05:17.409Z,87.21
2018-03-23T07:07:43.451Z,86.97
2018-03-23T07:10:09.467Z,86.75
2018-03-23T07:12:35.538Z,87.04
2018-03-23T07:15:01.578Z,86.16
2018-03-23T07:17:27.631Z,85.51
2018-03-23T07:19:53.694Z,85.16
2018-03-23T07:22:19.726Z,85.00
2018-03-23T07:24:45.789Z,84.86
2018-03-23T07:27:11.830Z,85.39
2018-03-23T07:29:37.842Z,84.72
2018-03-23T07:32:04.082Z,84.88
2018-03-23T07:34:30.078Z,84.07
2018-03-23T07:36:56.110Z,84.02
2018-03-23T07:39:22.187Z,84.19
2018-03-23T07:41:48.558Z,83.52
2018-03-23T07:44:15.204Z,83.10
2018-03-23T07:46:41.282Z,81.88
2018-03-23T07:49:07.323Z,82.82
2018-03-23T07:51:33.374Z,82.32
2018-03-23T07:53:59.401Z,81.67
2018-03-23T07:56:25.425Z,80.46
2018-03-23T07:58:51.447Z,80.46
2018-03-23T08:01:17.454Z,79.47
2018-03-23T08:03:43.483Z,79.57
2018-03-23T08:06:09.502Z,78.11
2018-03-23T08:08:35.493Z,77.70
2018-03-23T08:11:01.524Z,76.74
2018-03-23T08:13:27.552Z,76.05
2018-03-23T08:15:53.642Z,76.52
2018-03-23T08:18:19.646Z,76.73
2018-03-23T08:20:45.671Z,75.74
2018-03-23T08:23:11.680Z,75.04
2018-03-23T08:25:37.686Z,73.98
2018-03-23T08:28:03.688Z,74.96
2018-03-23T08:30:29.741Z,75.56
2018-03-23T08:33:02.778Z,75.27
2018-03-23T08:35:28.927Z,74.96
2018-03-23T08:37:54.989Z,74.21
2018-03-23T08:40:21.008Z,74.42
2018-03-23T08:42:47.091Z,74.41
2018-03-23T08:45:13.135Z,74.17
2018-03-23T08:47:39.165Z,73.92
2018-03-23T08:50:05.195Z,74.08
2018-03-23T08:52:31.249Z,74.04
2018-03-23T08:54:57.258Z,73.68
2018-03-23T08:57:23.254Z,73.96
2018-03-23T08:59:49.314Z,73.34
2018-03-23T09:02:15.330Z,72.85
2018-03-23T09:04:41.367Z,73.06
2018-03-23T09:07:07.362Z,72.08
2018-03-23T09:09:33.352Z,72.18
2018-03-23T09:11:59.380Z,70.58
2018-03-23T09:14:25.389Z,70.75
2018-03-23T09:19:10.085Z,67.83
2018-03-23T09:21:36.122Z,67.85
2018-03-23T09:24:02.205Z,65.95
2018-03-23T09:26:28.282Z,65.70
2018-03-23T09:28:54.320Z,65.73
2018-03-23T09:31:21.046Z,66.94
2018-03-23T09:33:47.067Z,67.91
2018-03-23T09:36:13.129Z,67.48
2018-03-23T09:38:39.255Z,66.64
2018-03-23T09:41:05.406Z,66.17
2018-03-23T09:43:31.460Z,66.67
2018-03-23T09:45:57.533Z,66.59
2018-03-23T09:48:23.543Z,66.01
2018-03-23T09:50:49.605Z,64.92
2018-03-23T09:53:15.687Z,64.54
2018-03-23T09:55:41.730Z,65.62
2018-03-23T09:58:08.105Z,66.84
2018-03-23T10:00:34.110Z,67.26
2018-03-23T10:03:00.144Z,67.86
2018-03-23T10:05:26.209Z,67.86
2018-03-23T10:07:52.273Z,68.47
2018-03-23T10:10:18.875Z,67.54
2018-03-23T10:12:45.415Z,67.90
2018-03-23T10:15:11.426Z,68.14
2018-03-23T10:17:37.467Z,68.05
2018-03-23T10:20:03.525Z,67.75
2018-03-23T10:22:30.080Z,67.49
2018-03-23T10:24:56.093Z,68.39
2018-03-23T10:27:22.158Z,67.32
2018-03-23T10:29:48.254Z,67.49
2018-03-23T10:32:14.382Z,67.20
2018-03-23T10:34:40.561Z,67.28
2018-03-23T10:37:06.824Z,67.15
2018-03-23T10:39:32.942Z,67.14
2018-03-23T10:41:58.970Z,66.82
2018-03-23T10:44:25.083Z,66.92
2018-03-23T10:46:51.433Z,67.03
2018-03-23T10:49:17.447Z,67.67
2018-03-23T10:51:43.490Z,67.12
2018-03-23T10:54:09.554Z,66.62
2018-03-23T10:56:35.560Z,66.60
2018-03-23T10:59:01.673Z,67.08
2018-03-23T11:01:30.782Z,66.91
2018-03-23T11:03:56.791Z,66.65
2018-03-23T11:06:22.849Z,66.46
2018-03-23T11:08:48.958Z,66.21
2018-03-23T11:11:15.146Z,65.76
2018-03-23T11:13:41.239Z,66.02
2018-03-23T11:16:07.311Z,66.16
2018-03-23T11:18:34.149Z,66.06
2018-03-23T11:21:00.255Z,65.22
2018-03-23T11:23:26.428Z,64.91
2018-03-23T11:25:52.459Z,65.10
2018-03-23T11:28:18.513Z,65.32
2018-03-23T11:30:44.807Z,65.77
2018-03-23T11:33:11.296Z,66.05
2018-03-23T11:35:37.335Z,66.61
2018-03-23T11:38:03.362Z,67.39
2018-03-23T11:40:29.372Z,67.47
2018-03-23T11:42:55.407Z,68.37
2018-03-23T11:45:21.523Z,67.60
2018-03-23T11:47:47.610Z,68.45
2018-03-23T11:50:13.678Z,68.06
2018-03-23T11:52:39.720Z,68.53
2018-03-23T11:55:05.734Z,69.76
2018-03-23T11:57:31.735Z,69.58
2018-03-23T11:59:58.173Z,69.59
2018-03-23T12:02:24.288Z,70.17
2018-03-23T12:04:50.320Z,70.29
2018-03-23T12:07:17.209Z,70.40
2018-03-23T12:09:43.197Z,70.02
2018-03-23T12:12:09.231Z,70.83
2018-03-23T12:14:35.300Z,69.41
2018-03-23T12:17:01.399Z,69.38
2018-03-23T12:19:27.423Z,69.17
2018-03-23T12:21:53.417Z,69.27
2018-03-23T12:24:19.507Z,69.44
2018-03-23T12:26:45.652Z,70.58
2018-03-23T12:29:11.754Z,70.52
2018-03-23T12:31:37.835Z,70.62
2018-03-23T12:34:03.950Z,70.44
2018-03-23T12:36:30.002Z,71.04
2018-03-23T12:38:56.031Z,70.61
2018-03-23T12:41:22.087Z,70.58
2018-03-23T12:43:48.116Z,70.74
2018-03-23T12:46:14.768Z,70.62
2018-03-23T12:48:40.897Z,71.02
2018-03-23T12:51:06.972Z,71.79
2018-03-23T12:53:32.981Z,71.85
2018-03-23T12:55:59.096Z,72.12
2018-03-23T12:58:25.178Z,72.24
2018-03-23T13:00:51.176Z,72.60
2018-03-23T13:03:17.206Z,72.37
2018-03-23T13:05:43.245Z,72.71
2018-03-23T13:08:09.290Z,72.88
2018-03-23T13:10:35.323Z,73.14
2018-03-23T13:13:01.419Z,73.29
2018-03-23T13:15:27.420Z,73.25
2018-03-23T13:17:53.463Z,73.08
2018-03-23T13:20:19.459Z,72.65
2018-03-23T13:22:45.626Z,73.11
2018-03-23T13:25:11.654Z,72.84
2018-03-23T13:27:37.711Z,72.85
2018-03-23T13:30:03.721Z,73.30
2018-03-23T13:32:29.975Z,73.01
2018-03-23T13:34:56.033Z,72.87
2018-03-23T13:37:23.304Z,72.87
2018-03-23T13:39:49.334Z,72.82
2018-03-23T13:42:15.826Z,73.06
2018-03-23T13:44:41.952Z,73.40
2018-03-23T13:47:08.058Z,73.98
2018-03-23T13:49:34.089Z,73.48
2018-03-23T13:52:00.183Z,73.59
2018-03-23T13:54:26.260Z,74.09
2018-03-23T13:56:52.420Z,74.55
2018-03-23T13:59:24.514Z,74.40
2018-03-23T14:01:50.727Z,74.88
2018-03-23T14:04:16.874Z,74.46
2018-03-23T14:06:43.197Z,74.90
2018-03-23T14:09:09.236Z,74.93
2018-03-23T14:11:36.440Z,74.91
2018-03-23T14:14:02.504Z,75.19
2018-03-23T14:16:28.526Z,74.78
2018-03-23T14:18:54.832Z,74.78
2018-03-23T14:21:20.847Z,74.77
2018-03-23T14:23:46.941Z,75.15
2018-03-23T14:26:13.076Z,76.17
2018-03-23T14:28:39.318Z,76.90
2018-03-23T14:31:05.372Z,77.44
2018-03-23T14:33:31.382Z,77.73
2018-03-23T14:35:58.140Z,77.94
2018-03-23T14:38:24.277Z,78.25
2018-03-23T14:40:50.384Z,78.85
2018-03-23T14:43:16.662Z,78.82
2018-03-23T14:45:43.122Z,79.82
2018-03-23T14:48:09.177Z,79.53
2018-03-23T14:50:35.268Z,80.01
2018-03-23T14:53:01.485Z,80.16
2018-03-23T14:55:28.069Z,80.39
2018-03-23T14:57:54.673Z,80.83
2018-03-23T15:00:20.760Z,81.19
2018-03-23T15:02:46.792Z,81.35
2018-03-23T15:05:12.906Z,82.09
2018-03-23T15:07:38.972Z,82.28
2018-03-23T15:10:04.977Z,82.35
2018-03-23T15:12:30.998Z,82.46
2018-03-23T15:14:57.117Z,82.70
2018-03-23T15:17:23.468Z,83.04
2018-03-23T15:19:49.535Z,82.79
2018-03-23T15:22:15.554Z,82.74
2018-03-23T15:24:42.021Z,83.46
2018-03-23T15:27:08.268Z,83.47
2018-03-23T15:29:34.483Z,83.32
2018-03-23T15:32:00.531Z,83.38
2018-03-23T15:34:26.607Z,83.52
2018-03-23T15:36:52.760Z,83.76
2018-03-23T15:39:18.831Z,83.47
2018-03-23T15:41:45.012Z,83.49
2018-03-23T15:44:11.017Z,83.81
2018-03-23T15:46:37.058Z,84.00
2018-03-23T15:49:03.317Z,83.93
2018-03-23T15:51:29.397Z,84.18
2018-03-23T15:53:55.524Z,84.13
2018-03-23T15:56:21.740Z,84.32
2018-03-23T15:58:47.777Z,84.28
2018-03-23T16:01:13.798Z,84.34
2018-03-23T16:03:39.829Z,84.38
2018-03-23T16:06:05.903Z,84.47
2018-03-23T16:08:31.964Z,84.27
2018-03-23T16:10:57.986Z,83.99
2018-03-23T16:13:24.426Z,83.71
2018-03-23T16:15:50.520Z,83.82
2018-03-23T16:18:16.787Z,83.91
2018-03-23T16:20:43.475Z,84.13
2018-03-23T16:23:09.541Z,84.04
2018-03-23T16:25:35.570Z,83.72
2018-03-23T16:28:01.661Z,83.33
2018-03-23T16:30:27.804Z,83.41
2018-03-23T16:32:53.841Z,83.12
2018-03-23T16:35:19.932Z,83.29
2018-03-23T16:37:46.098Z,83.23
2018-03-23T16:40:12.161Z,83.55
2018-03-23T16:42:38.264Z,83.50
2018-03-23T16:45:04.332Z,83.52
2018-03-23T16:47:30.358Z,83.49
2018-03-23T16:49:56.802Z,83.36
2018-03-23T16:52:22.958Z,83.53
2018-03-23T16:54:49.087Z,83.60
2018-03-23T16:57:15.339Z,83.39
2018-03-23T16:59:41.585Z,83.14
2018-03-23T17:02:07.764Z,83.31
2018-03-23T17:04:34.026Z,83.52
2018-03-23T17:07:00.361Z,83.93
2018-03-23T17:09:26.986Z,83.99
2018-03-23T17:14:01.689Z,83.93
2018-03-23T17:16:27.999Z,84.21
2018-03-23T17:18:54.407Z,84.38
2018-03-23T17:21:20.868Z,84.76
2018-03-23T17:23:47.210Z,84.88
2018-03-23T17:26:13.349Z,84.95
2018-03-23T17:28:39.505Z,85.09
2018-03-23T17:31:05.748Z,85.15
2018-03-23T17:33:32.115Z,85.25
2018-03-23T17:35:58.422Z,85.50
2018-03-23T17:38:25.059Z,85.50
2018-03-23T17:40:51.483Z,85.65
2018-03-23T17:43:17.915Z,85.64
2018-03-23T17:45:44.567Z,85.66
2018-03-23T17:48:10.999Z,85.96
2018-03-23T17:50:37.217Z,86.15
2018-03-23T17:53:03.368Z,86.32
2018-03-23T17:55:29.551Z,86.21
2018-03-23T17:57:55.613Z,86.43
2018-03-23T18:00:21.759Z,86.40
2018-03-23T18:02:47.845Z,86.60
2018-03-23T18:05:14.001Z,86.82
2018-03-23T18:07:40.714Z,86.76
2018-03-23T18:10:06.845Z,86.72
2018-03-23T18:12:33.121Z,86.91
2018-03-23T18:14:59.290Z,86.97
2018-03-23T18:17:25.380Z,87.07
2018-03-23T18:19:51.443Z,87.15
2018-03-23T18:22:17.756Z,87.24
2018-03-23T18:24:43.853Z,87.30
2018-03-23T18:27:10.019Z,87.69
2018-03-23T18:29:36.141Z,87.60
2018-03-23T18:32:02.402Z,87.54
2018-03-23T18:34:28.613Z,87.53
2018-03-23T18:36:54.875Z,87.66
2018-03-23T18:39:21.534Z,87.65
2018-03-23T18:41:47.715Z,87.78
2018-03-23T18:44:13.856Z,87.98
2018-03-23T18:46:40.167Z,88.15
2018-03-23T18:49:06.633Z,88.10
2018-03-23T18:51:32.852Z,88.48
2018-03-23T18:53:59.471Z,88.73
2018-03-23T18:56:25.649Z,88.83
2018-03-23T18:58:52.113Z,88.96
2018-03-23T19:01:19.195Z,89.41
2018-03-23T19:03:45.711Z,89.59
2018-03-23T19:06:12.571Z,89.62
2018-03-23T19:08:39.257Z,89.72
2018-03-23T19:11:05.782Z,89.91
2018-03-23T19:13:32.206Z,89.99
2018-03-23T19:15:58.657Z,89.99
2018-03-23T19:18:25.152Z,90.24
2018-03-23T19:20:51.757Z,89.62
2018-03-23T19:23:18.488Z,89.73
2018-03-23T19:25:45.963Z,89.66
2018-03-23T19:28:12.447Z,89.32
2018-03-23T19:30:39.022Z,88.79
2018-03-23T19:33:05.579Z,88.76
2018-03-23T19:35:32.037Z,88.51
2018-03-23T19:37:58.511Z,88.49
2018-03-23T19:40:24.944Z,88.87
2018-03-23T19:42:51.317Z,88.85
2018-03-23T19:45:17.716Z,88.81
2018-03-23T19:47:44.091Z,88.71
2018-03-23T19:50:10.602Z,89.01
2018-03-23T19:52:37.392Z,89.43
2018-03-23T19:55:03.912Z,89.53
2018-03-23T19:57:30.684Z,89.75
2018-03-23T19:59:57.218Z,89.81
2018-03-23T20:02:23.584Z,89.26
2018-03-23T20:04:49.745Z,89.18
2018-03-23T20:07:15.914Z,89.02
2018-03-23T20:09:41.959Z,88.86
2018-03-23T20:12:08.017Z,88.56
2018-03-23T20:14:34.318Z,88.48
2018-03-23T20:17:00.420Z,88.58
2018-03-23T20:19:26.506Z,88.71
2018-03-23T20:21:52.903Z,88.58
2018-03-23T20:24:25.786Z,88.59
2018-03-23T20:26:51.885Z,88.49
2018-03-23T20:29:18.002Z,88.70
2018-03-23T20:31:50.180Z,88.79
2018-03-23T20:34:16.430Z,88.58
2018-03-23T20:36:42.977Z,88.61
2018-03-23T20:39:09.214Z,88.94
2018-03-23T20:41:35.526Z,88.73
2018-03-23T20:44:01.692Z,88.79
2018-03-23T20:46:27.780Z,88.73
2018-03-23T20:48:53.836Z,88.71
2018-03-23T20:51:19.926Z,88.46
2018-03-23T20:53:46.014Z,88.54
2018-03-23T20:56:12.400Z,88.43
2018-03-23T20:58:38.746Z,88.42
2018-03-23T21:01:05.391Z,88.24
2018-03-23T21:03:31.440Z,88.17
2018-03-23T21:05:57.582Z,88.39
2018-03-23T21:08:23.654Z,88.40
2018-03-23T21:10:49.748Z,88.36
2018-03-23T21:13:15.892Z,88.30
2018-03-23T21:15:41.980Z,88.52
2018-03-23T21:18:08.126Z,88.51
2018-03-23T21:20:34.552Z,88.60
2018-03-23T21:23:00.762Z,88.74
2018-03-23T21:25:26.912Z,89.08
2018-03-23T21:27:53.241Z,89.00
2018-03-23T21:30:19.309Z,89.47
2018-03-23T21:32:45.426Z,89.07
2018-03-23T21:35:11.562Z,89.12
2018-03-23T21:37:37.650Z,89.33
2018-03-23T21:40:03.755Z,89.39
2018-03-23T21:42:29.798Z,89.42
2018-03-23T21:44:55.894Z,89.25
2018-03-23T21:47:21.997Z,89.21
2018-03-23T21:49:48.061Z,89.32
2018-03-23T21:52:14.163Z,89.40
2018-03-23T21:54:40.336Z,89.73
2018-03-23T21:57:06.532Z,89.84
2018-03-23T21:59:32.952Z,89.80
2018-03-23T22:01:59.211Z,89.85
2018-03-23T22:04:25.339Z,89.72
2018-03-23T22:06:51.476Z,89.61
2018-03-23T22:09:17.511Z,89.64
2018-03-23T22:11:43.559Z,89.73
2018-03-23T22:14:09.603Z,89.86
2018-03-23T22:16:35.624Z,89.74
2018-03-23T22:19:01.608Z,89.98
2018-03-23T22:21:27.745Z,89.96
2018-03-23T22:23:54.097Z,89.79
2018-03-23T22:26:20.202Z,89.42
2018-03-23T22:28:46.336Z,89.45
2018-03-23T22:31:12.415Z,89.29
2018-03-23T22:33:38.480Z,89.41
2018-03-23T22:36:04.611Z,89.22
2018-03-23T22:38:30.635Z,89.21
2018-03-23T22:40:56.812Z,89.30
2018-03-23T22:43:22.849Z,89.08
2018-03-23T22:45:49.093Z,89.29
2018-03-23T22:48:15.137Z,89.30
2018-03-23T22:50:41.249Z,89.30
2018-03-23T22:53:07.286Z,89.36
2018-03-23T22:55:33.284Z,89.21
2018-03-23T22:57:59.414Z,89.24
2018-03-23T23:00:25.438Z,89.21
2018-03-23T23:02:51.452Z,89.49
2018-03-23T23:05:17.479Z,89.21
2018-03-23T23:07:43.468Z,89.32
2018-03-23T23:10:09.566Z,89.25
2018-03-23T23:12:35.594Z,89.02
2018-03-23T23:15:01.586Z,89.44
2018-03-23T23:17:27.610Z,89.30
2018-03-23T23:19:53.658Z,89.24
2018-03-23T23:22:19.776Z,89.40
2018-03-23T23:24:45.764Z,89.47
2018-03-23T23:27:11.794Z,89.51
2018-03-23T23:29:37.810Z,89.40
2018-03-23T23:32:03.829Z,89.28
2018-03-23T23:34:29.877Z,89.40
2018-03-23T23:36:55.926Z,89.24
2018-03-23T23:39:21.957Z,89.00
2018-03-23T23:41:48.829Z,89.12
2018-03-23T23:44:14.976Z,89.12
2018-03-23T23:46:41.006Z,88.94
2018-03-23T23:49:07.071Z,88.82
2018-03-23T23:51:33.093Z,88.63
2018-03-23T23:53:59.308Z,88.67
2018-03-23T23:56:25.395Z,88.25
2018-03-23T23:58:51.427Z,88.53
